Adams, Nebraska
Current Conditions -  °F | °C
As of 11:35 AM on Saturday 20 Dec 2014 (Local Time) from KBIE Reporting Station
Haze Haze  
Wind Chill: 32°   Ceiling: 300
Heat Index: 32°   Visibility: 3mi
Dew Point: 32°   Wind: 3mph
Humidity: 100%   Direction: 260°W
Pressure: 30.1"   Gusts: NA
Location:  40.46°N, 96.51°W
Report Text: KBIE 201735Z AUTO 26003KT 3SM BR OVC003 00/00 A3010 RMK AO2 T00000000
Loading
Personal Weather Stations






























Interactive Weather Map New forecast layout! Learn more

10-Day Weather Forecast

Advertisements
Track Severe Weather on mobile